Time;durP1;ratioP1;P1;durP2;ratioP2;P2;SDS_P1;SDS_P2;PMS_P1;PMS_P2;Temp;Humidity;BMP_temperature;BMP_pressure;BME280_temperature;BME280_humidity;BME280_pressure;Samples;Min_cycle;Max_cycle;Signal;HPM_P1;HPM_P2
2021/06/06 00:00:26;;;;;;;9.53;6.33;;;15.90;99.90;;;;;;5088507;28;21258;-85
2021/06/06 00:02:53;;;;;;;8.27;6.50;;;16.00;99.90;;;;;;5091810;28;20626;-86
2021/06/06 00:05:21;;;;;;;6.33;5.73;;;15.90;99.90;;;;;;5091830;28;20608;-85
2021/06/06 00:07:48;;;;;;;9.63;6.87;;;15.90;99.90;;;;;;5089475;28;20661;-86
2021/06/06 00:10:15;;;;;;;6.93;6.23;;;15.90;99.90;;;;;;5092198;28;21029;-85
2021/06/06 00:12:43;;;;;;;7.30;6.40;;;15.90;99.90;;;;;;5083166;28;20657;-86
2021/06/06 00:15:12;;;;;;;8.73;6.00;;;15.80;99.90;;;;;;5070974;28;21169;-86
2021/06/06 00:17:39;;;;;;;7.23;6.30;;;15.90;99.90;;;;;;5071360;28;20850;-86
2021/06/06 00:20:08;;;;;;;5.50;5.00;;;15.90;99.90;;;;;;5072019;28;20671;-86
2021/06/06 00:22:35;;;;;;;8.90;6.00;;;15.90;99.90;;;;;;5071837;28;20981;-86
2021/06/06 00:25:01;;;;;;;7.47;5.77;;;15.80;99.90;;;;;;5071346;28;20653;-86
2021/06/06 00:27:27;;;;;;;7.80;6.03;;;15.80;99.90;;;;;;5071464;28;20675;-85
2021/06/06 00:29:55;;;;;;;7.03;6.30;;;15.80;99.90;;;;;;5071706;28;20645;-85
2021/06/06 00:32:22;;;;;;;7.33;5.30;;;15.90;99.90;;;;;;5071010;28;20668;-85
2021/06/06 00:34:48;;;;;;;5.53;5.03;;;15.80;99.90;;;;;;5071344;28;20660;-85
2021/06/06 00:37:14;;;;;;;7.80;5.90;;;15.80;99.90;;;;;;5071512;28;20651;-86
2021/06/06 00:39:41;;;;;;;6.67;5.73;;;15.80;99.90;;;;;;5071731;28;20625;-86
2021/06/06 00:42:07;;;;;;;7.60;6.50;;;15.80;99.90;;;;;;5071540;28;21005;-85
2021/06/06 00:44:34;;;;;;;7.03;6.40;;;15.80;99.90;;;;;;5070477;28;20663;-85
2021/06/06 00:47:01;;;;;;;6.97;6.27;;;15.70;99.90;;;;;;5071194;28;20656;-85
2021/06/06 00:49:28;;;;;;;7.87;5.90;;;15.70;99.90;;;;;;5097881;28;20636;-86
2021/06/06 00:51:56;;;;;;;7.87;6.03;;;15.60;99.90;;;;;;5091493;28;20677;-86
2021/06/06 00:54:27;;;;;;;9.83;6.20;;;15.70;99.90;;;;;;5091120;28;20618;-86
2021/06/06 00:56:59;;;;;;;7.17;6.47;;;15.70;99.90;;;;;;5091464;28;20623;-86
2021/06/06 00:59:27;;;;;;;5.97;5.37;;;15.70;99.90;;;;;;5090984;28;21452;-86
2021/06/06 01:01:54;;;;;;;6.27;5.67;;;15.70;99.90;;;;;;5091392;28;21189;-86
2021/06/06 01:04:23;;;;;;;6.00;5.40;;;15.80;99.90;;;;;;5090955;28;20644;-86
2021/06/06 01:06:54;;;;;;;6.20;5.60;;;15.80;99.90;;;;;;5091035;28;20666;-85
2021/06/06 01:09:24;;;;;;;6.60;6.00;;;15.70;99.90;;;;;;5090589;28;20644;-85
2021/06/06 01:12:01;;;;;;;6.80;4.90;;;15.80;99.90;;;;;;5090754;28;20601;-85
2021/06/06 01:14:34;;;;;;;7.30;6.67;;;15.80;99.90;;;;;;5090340;28;20620;-86
2021/06/06 01:17:06;;;;;;;7.40;5.67;;;15.80;99.90;;;;;;5086004;28;20669;-87
2021/06/06 01:19:43;;;;;;;7.13;6.47;;;15.70;99.90;;;;;;5075843;28;20625;-87
2021/06/06 01:22:28;;;;;;;7.53;6.77;;;15.70;99.90;;;;;;5080070;28;20621;-87
2021/06/06 01:25:08;;;;;;;6.83;6.20;;;15.70;99.90;;;;;;5088162;28;20662;-87
2021/06/06 01:27:40;;;;;;;7.30;6.30;;;15.70;99.90;;;;;;5070992;28;20629;-87
2021/06/06 01:30:11;;;;;;;7.07;6.17;;;15.70;99.90;;;;;;5077937;28;20636;-87
2021/06/06 01:32:42;;;;;;;7.10;6.40;;;15.70;99.90;;;;;;5090959;28;20616;-86
2021/06/06 01:35:16;;;;;;;7.23;6.13;;;15.60;99.90;;;;;;5090673;28;20707;-86
2021/06/06 01:37:49;;;;;;;8.10;6.80;;;15.60;99.90;;;;;;5091113;28;20736;-87
2021/06/06 01:40:22;;;;;;;6.80;6.10;;;15.60;99.90;;;;;;5070935;28;20616;-87
2021/06/06 01:42:52;;;;;;;7.50;6.23;;;15.50;99.90;;;;;;5070860;28;20632;-87
2021/06/06 01:45:27;;;;;;;6.40;5.67;;;15.50;99.90;;;;;;5070320;28;20641;-86
2021/06/06 01:47:59;;;;;;;8.13;6.40;;;15.50;99.90;;;;;;5070830;28;20681;-85
2021/06/06 01:50:30;;;;;;;7.80;7.00;;;15.60;99.90;;;;;;5070675;28;21170;-86
2021/06/06 01:53:00;;;;;;;7.40;6.40;;;15.60;99.90;;;;;;5070780;28;21213;-86
2021/06/06 01:55:33;;;;;;;7.03;6.27;;;15.60;99.90;;;;;;5074459;28;20642;-86
2021/06/06 01:58:04;;;;;;;8.10;6.03;;;15.60;99.90;;;;;;5090897;28;20654;-86
2021/06/06 02:00:35;;;;;;;8.50;6.93;;;15.60;99.90;;;;;;5066958;28;20637;-85
2021/06/06 02:03:04;;;;;;;9.30;7.20;;;15.50;99.90;;;;;;5070618;28;20612;-86
2021/06/06 02:05:34;;;;;;;8.27;6.87;;;15.50;99.90;;;;;;5069929;28;20624;-86
2021/06/06 02:08:04;;;;;;;7.87;6.67;;;15.50;99.90;;;;;;5070095;28;20676;-86
2021/06/06 02:10:37;;;;;;;7.50;6.83;;;15.50;99.90;;;;;;5070252;28;20612;-87
2021/06/06 02:13:10;;;;;;;7.23;6.20;;;15.50;99.90;;;;;;5070520;28;20620;-87
2021/06/06 02:15:39;;;;;;;7.10;6.40;;;15.40;99.90;;;;;;5069576;28;20980;-87
2021/06/06 02:18:09;;;;;;;7.30;6.10;;;15.50;99.90;;;;;;5070297;28;20616;-87
2021/06/06 02:20:41;;;;;;;6.63;6.03;;;15.50;99.90;;;;;;5071155;28;20613;-87
2021/06/06 02:23:10;;;;;;;9.90;6.00;;;15.50;99.90;;;;;;5074370;28;21196;-86
2021/06/06 02:25:39;;;;;;;6.27;5.67;;;15.50;99.90;;;;;;5074181;28;20632;-86
2021/06/06 02:28:18;;;;;;;6.63;5.50;;;15.50;99.90;;;;;;5074335;28;20645;-87
2021/06/06 02:30:54;;;;;;;7.07;5.17;;;15.50;99.90;;;;;;5088490;28;20627;-86
2021/06/06 02:33:27;;;;;;;5.93;4.87;;;15.50;99.90;;;;;;5094310;28;20619;-86
2021/06/06 02:35:57;;;;;;;7.43;5.30;;;15.60;99.90;;;;;;5093489;28;20611;-86
2021/06/06 02:38:30;;;;;;;6.00;5.20;;;15.60;99.90;;;;;;5094838;28;20650;-86
2021/06/06 02:41:04;;;;;;;6.10;5.17;;;15.50;99.90;;;;;;5094338;28;21184;-86
2021/06/06 02:43:36;;;;;;;6.93;5.77;;;15.50;99.90;;;;;;5094080;28;21183;-86
2021/06/06 02:46:05;;;;;;;7.10;6.27;;;15.50;99.90;;;;;;5093805;28;20628;-86
2021/06/06 02:48:35;;;;;;;6.53;5.93;;;15.50;99.90;;;;;;5094217;28;20640;-86
2021/06/06 02:51:05;;;;;;;5.90;5.17;;;15.50;99.90;;;;;;5094250;28;20619;-85
2021/06/06 02:53:34;;;;;;;7.10;5.53;;;15.50;99.90;;;;;;5094162;28;20616;-86
2021/06/06 02:56:08;;;;;;;6.73;5.43;;;15.40;99.90;;;;;;5093540;28;20600;-86
2021/06/06 02:58:40;;;;;;;6.63;5.90;;;15.40;99.90;;;;;;5092118;28;20611;-86
2021/06/06 03:01:15;;;;;;;8.17;4.93;;;15.40;99.90;;;;;;5073476;28;20605;-85
2021/06/06 03:03:45;;;;;;;5.80;5.30;;;15.50;99.90;;;;;;5073539;28;20711;-86
2021/06/06 03:06:18;;;;;;;7.10;5.63;;;15.50;99.90;;;;;;5072898;28;21201;-86
2021/06/06 03:08:47;;;;;;;7.43;5.67;;;15.50;99.90;;;;;;5072381;28;20645;-87
2021/06/06 03:11:18;;;;;;;7.70;6.00;;;15.50;99.90;;;;;;5069793;28;20603;-87
2021/06/06 03:13:49;;;;;;;7.77;6.40;;;15.50;99.90;;;;;;5073759;28;20815;-86
2021/06/06 03:16:17;;;;;;;7.70;4.93;;;15.50;99.90;;;;;;5072146;28;21213;-86
2021/06/06 03:18:49;;;;;;;6.00;5.40;;;15.40;99.90;;;;;;5073280;28;20613;-86
2021/06/06 03:21:18;;;;;;;6.23;5.13;;;15.40;99.90;;;;;;5073078;28;20636;-86
2021/06/06 03:23:49;;;;;;;7.20;4.93;;;15.40;99.90;;;;;;5073250;28;20671;-86
2021/06/06 03:26:17;;;;;;;6.07;5.40;;;15.40;99.90;;;;;;5072548;28;20614;-86
2021/06/06 03:28:46;;;;;;;7.65;6.32;;;15.40;99.90;;;;;;5072153;28;20826;-87
2021/06/06 03:31:19;;;;;;;7.03;5.63;;;15.50;99.90;;;;;;5090948;28;20294;-86
2021/06/06 03:33:50;;;;;;;6.23;5.63;;;15.40;99.90;;;;;;5093521;28;20608;-86
2021/06/06 03:36:26;;;;;;;5.83;5.30;;;15.40;99.90;;;;;;5092762;28;20611;-86
2021/06/06 03:38:56;;;;;;;6.47;4.43;;;15.30;99.90;;;;;;5093334;28;20596;-86
2021/06/06 03:41:29;;;;;;;6.50;5.43;;;15.20;99.90;;;;;;5093046;28;20628;-86
2021/06/06 03:43:56;;;;;;;6.73;5.50;;;15.30;99.90;;;;;;5092681;28;20615;-86
2021/06/06 03:46:28;;;;;;;8.80;5.20;;;15.20;99.90;;;;;;5092640;28;20654;-86
2021/06/06 03:48:57;;;;;;;5.93;4.60;;;15.20;99.90;;;;;;5096587;28;20648;-85
2021/06/06 03:51:25;;;;;;;6.43;5.10;;;15.20;99.90;;;;;;5101489;28;20612;-86
2021/06/06 03:53:53;;;;;;;5.33;4.83;;;15.20;99.90;;;;;;5093025;28;20623;-85
2021/06/06 03:56:22;;;;;;;6.77;4.60;;;15.20;99.90;;;;;;5092008;28;20619;-85
2021/06/06 03:58:52;;;;;;;8.27;5.03;;;15.30;99.90;;;;;;5092859;28;20620;-85
2021/06/06 04:01:20;;;;;;;4.87;4.40;;;15.30;99.90;;;;;;5092485;28;21160;-85
2021/06/06 04:03:48;;;;;;;9.03;5.00;;;15.30;99.90;;;;;;5092576;28;20616;-85
2021/06/06 04:06:16;;;;;;;4.67;4.27;;;15.20;99.90;;;;;;5091909;28;20655;-86
2021/06/06 04:08:44;;;;;;;5.57;4.93;;;15.20;99.90;;;;;;5092474;28;20644;-86
2021/06/06 04:11:12;;;;;;;5.40;4.90;;;15.20;99.90;;;;;;5092418;28;20624;-86
2021/06/06 04:13:40;;;;;;;5.43;4.93;;;15.20;99.90;;;;;;5092790;28;20616;-86
2021/06/06 04:16:09;;;;;;;5.87;4.73;;;15.20;99.90;;;;;;5091257;28;20712;-85
2021/06/06 04:18:47;;;;;;;5.10;4.60;;;15.30;99.90;;;;;;5092376;28;20645;-85
2021/06/06 04:21:19;;;;;;;4.57;4.17;;;15.20;99.90;;;;;;5087950;28;20627;-85
2021/06/06 04:23:47;;;;;;;4.70;4.30;;;15.20;99.90;;;;;;5092333;28;20675;-85
2021/06/06 04:26:16;;;;;;;4.13;3.73;;;15.20;99.90;;;;;;5092009;28;20616;-85
2021/06/06 04:28:47;;;;;;;5.60;4.73;;;15.20;99.90;;;;;;5092363;28;20683;-85
2021/06/06 04:31:17;;;;;;;5.80;4.00;;;15.20;99.90;;;;;;5092235;28;20989;-85
2021/06/06 04:33:45;;;;;;;4.67;4.27;;;15.20;99.90;;;;;;5091827;28;20619;-84
2021/06/06 04:36:17;;;;;;;4.17;3.77;;;15.20;99.90;;;;;;5091605;28;20685;-85
2021/06/06 04:38:44;;;;;;;4.23;3.07;;;15.10;99.90;;;;;;5092135;28;20612;-84
2021/06/06 04:41:13;;;;;;;5.33;4.20;;;15.20;99.90;;;;;;5091932;28;20632;-85
2021/06/06 04:43:40;;;;;;;7.50;4.87;;;15.20;99.90;;;;;;5091304;28;20616;-84
2021/06/06 04:46:09;;;;;;;5.37;4.03;;;15.20;99.90;;;;;;5091340;28;20707;-84
2021/06/06 04:48:40;;;;;;;7.50;5.00;;;15.20;99.90;;;;;;5091989;28;20984;-85
2021/06/06 04:51:10;;;;;;;5.90;4.67;;;15.20;99.90;;;;;;5091924;28;20620;-84
2021/06/06 04:53:38;;;;;;;5.10;4.40;;;15.20;99.90;;;;;;5091682;28;20709;-85
2021/06/06 04:56:10;;;;;;;7.60;5.47;;;15.10;99.90;;;;;;5091007;28;20624;-84
2021/06/06 04:58:37;;;;;;;7.83;4.93;;;15.10;99.90;;;;;;5089415;28;20723;-84
2021/06/06 05:01:05;;;;;;;7.13;3.90;;;15.10;99.90;;;;;;5071419;28;20639;-85
2021/06/06 05:03:32;;;;;;;8.40;4.97;;;15.10;99.90;;;;;;5071354;28;20627;-85
2021/06/06 05:06:01;;;;;;;7.10;4.50;;;15.20;99.90;;;;;;5071189;28;20629;-84
2021/06/06 05:08:28;;;;;;;6.93;5.80;;;15.20;99.90;;;;;;5071156;28;20636;-84
2021/06/06 05:10:56;;;;;;;6.73;5.07;;;15.10;99.90;;;;;;5071378;28;20624;-84
2021/06/06 05:13:24;;;;;;;9.23;6.63;;;15.10;99.90;;;;;;5070837;28;20727;-84
2021/06/06 05:15:53;;;;;;;6.77;5.80;;;15.10;99.90;;;;;;5070229;28;20651;-84
2021/06/06 05:18:22;;;;;;;6.30;5.00;;;15.10;99.90;;;;;;5071370;28;20979;-84
2021/06/06 05:20:51;;;;;;;7.23;5.00;;;15.10;99.90;;;;;;5070883;28;20616;-85
2021/06/06 05:23:21;;;;;;;8.53;5.10;;;15.00;99.90;;;;;;5070518;28;20737;-84
2021/06/06 05:25:48;;;;;;;8.30;5.40;;;15.10;99.90;;;;;;5070193;28;20724;-84
2021/06/06 05:28:18;;;;;;;5.93;5.33;;;15.10;99.90;;;;;;5070564;28;20710;-84
2021/06/06 05:30:45;;;;;;;9.00;5.57;;;15.10;99.90;;;;;;5079198;28;20648;-84
2021/06/06 05:33:13;;;;;;;8.77;4.60;;;15.10;99.90;;;;;;5090827;28;20616;-84
2021/06/06 05:35:40;;;;;;;10.63;5.67;;;15.10;99.90;;;;;;5090001;28;20959;-84
2021/06/06 05:38:09;;;;;;;10.63;6.47;;;15.10;99.90;;;;;;5090478;28;20769;-84
2021/06/06 05:40:39;;;;;;;9.50;6.27;;;15.10;99.90;;;;;;5090604;28;20689;-84
2021/06/06 05:43:07;;;;;;;9.77;6.30;;;15.20;99.90;;;;;;5090629;28;20709;-84
2021/06/06 05:45:34;;;;;;;9.20;7.30;;;15.20;99.90;;;;;;5090485;28;21188;-84
2021/06/06 05:48:02;;;;;;;8.90;6.40;;;15.20;99.90;;;;;;5091142;28;21026;-84
2021/06/06 05:50:32;;;;;;;8.53;6.27;;;15.20;99.90;;;;;;5090999;28;20618;-84
2021/06/06 05:52:59;;;;;;;9.40;6.50;;;15.10;99.90;;;;;;5090405;28;20615;-85
2021/06/06 05:55:25;;;;;;;10.43;7.10;;;15.10;99.90;;;;;;5090310;28;20655;-84
2021/06/06 05:57:53;;;;;;;10.10;7.50;;;15.10;99.90;;;;;;5090369;28;21243;-84
2021/06/06 06:00:23;;;;;;;8.50;7.47;;;15.20;99.90;;;;;;5074205;28;20636;-84
2021/06/06 06:02:50;;;;;;;12.83;8.10;;;15.20;99.90;;;;;;5070458;28;21344;-84
2021/06/06 06:05:16;;;;;;;9.23;6.83;;;15.20;99.90;;;;;;5069766;28;20604;-84
2021/06/06 06:07:43;;;;;;;11.53;8.53;;;15.20;99.90;;;;;;5069881;28;21027;-84
2021/06/06 06:10:11;;;;;;;8.70;7.13;;;15.20;99.90;;;;;;5070377;28;20624;-84
2021/06/06 06:12:38;;;;;;;13.73;9.20;;;15.20;99.90;;;;;;5070222;28;20705;-84
2021/06/06 06:15:08;;;;;;;12.10;8.17;;;15.20;99.90;;;;;;5077519;28;20924;-85
2021/06/06 06:17:35;;;;;;;12.67;7.63;;;15.20;99.90;;;;;;5090326;28;20701;-84
2021/06/06 06:20:01;;;;;;;13.97;7.97;;;15.10;99.90;;;;;;5090189;28;21177;-84
2021/06/06 06:22:28;;;;;;;13.53;9.20;;;15.20;99.90;;;;;;5090532;28;20667;-84
2021/06/06 06:24:55;;;;;;;9.87;8.53;;;15.20;99.90;;;;;;5089896;28;20665;-84
2021/06/06 06:27:21;;;;;;;10.30;8.60;;;15.30;99.90;;;;;;5086406;28;20775;-85
2021/06/06 06:29:48;;;;;;;11.20;7.93;;;15.30;99.90;;;;;;5081528;28;20665;-85
2021/06/06 06:32:16;;;;;;;14.80;9.63;;;15.30;99.90;;;;;;5068034;28;20640;-84
2021/06/06 06:34:42;;;;;;;8.13;6.60;;;15.30;99.90;;;;;;5064419;28;20653;-84
2021/06/06 06:37:09;;;;;;;10.47;8.77;;;15.20;99.90;;;;;;5065891;28;20637;-84
2021/06/06 06:39:36;;;;;;;8.17;7.20;;;15.30;99.90;;;;;;5067334;28;20620;-84
2021/06/06 06:42:03;;;;;;;8.33;7.20;;;15.30;99.90;;;;;;5067928;28;21178;-85
2021/06/06 06:44:30;;;;;;;8.00;7.20;;;15.40;99.90;;;;;;5067592;28;21162;-84
2021/06/06 06:46:56;;;;;;;10.00;7.60;;;15.40;99.90;;;;;;5076792;28;20681;-85
2021/06/06 06:49:24;;;;;;;6.03;5.40;;;15.50;99.90;;;;;;5087330;28;20660;-85
2021/06/06 06:51:50;;;;;;;6.17;5.57;;;15.20;99.90;;;;;;5088568;28;21224;-85
2021/06/06 06:54:17;;;;;;;7.57;5.97;;;15.20;99.90;;;;;;5101345;28;20620;-85
2021/06/06 06:56:43;;;;;;;6.67;5.70;;;15.10;99.90;;;;;;5088811;28;20593;-86
2021/06/06 06:59:10;;;;;;;6.87;5.80;;;15.10;99.90;;;;;;5088465;28;20980;-86
2021/06/06 07:01:36;;;;;;;6.60;6.00;;;15.00;99.90;;;;;;5089759;28;20978;-85
2021/06/06 07:04:02;;;;;;;7.07;6.17;;;15.10;99.90;;;;;;5089910;28;20671;-85
2021/06/06 07:06:31;;;;;;;7.87;6.60;;;15.20;99.90;;;;;;5090006;28;21196;-86
2021/06/06 07:08:57;;;;;;;8.70;6.50;;;15.10;99.90;;;;;;5090655;28;20659;-85
2021/06/06 07:11:24;;;;;;;6.77;6.07;;;15.10;99.90;;;;;;5090864;28;20616;-85
2021/06/06 07:13:51;;;;;;;8.00;7.20;;;15.20;99.90;;;;;;5093856;28;20620;-85
2021/06/06 07:16:19;;;;;;;9.63;7.53;;;15.20;99.90;;;;;;5092595;28;20737;-86
2021/06/06 07:18:46;;;;;;;10.33;8.23;;;15.30;99.90;;;;;;5093725;28;21074;-86
2021/06/06 07:21:15;;;;;;;10.33;8.07;;;15.40;99.90;;;;;;5093348;28;20646;-86
2021/06/06 07:23:44;;;;;;;8.97;7.67;;;15.40;99.90;;;;;;5093301;28;20635;-85
2021/06/06 07:26:15;;;;;;;8.93;7.70;;;15.30;99.90;;;;;;5092626;28;20669;-86
2021/06/06 07:28:41;;;;;;;9.03;8.13;;;15.30;99.90;;;;;;5092988;28;20699;-85
2021/06/06 07:31:08;;;;;;;8.33;7.50;;;15.30;99.90;;;;;;5092036;28;20624;-85
2021/06/06 07:33:38;;;;;;;8.47;7.67;;;15.30;99.90;;;;;;5093442;28;20617;-85
2021/06/06 07:36:05;;;;;;;11.10;7.40;;;15.30;99.90;;;;;;5092751;28;20656;-85
2021/06/06 07:38:32;;;;;;;10.50;8.53;;;15.30;99.90;;;;;;5093123;28;20635;-85
2021/06/06 07:41:02;;;;;;;12.20;9.17;;;15.40;99.90;;;;;;5093269;28;20635;-85
2021/06/06 07:43:29;;;;;;;9.50;7.97;;;15.50;99.90;;;;;;5092671;28;20638;-85
2021/06/06 07:45:56;;;;;;;9.50;7.63;;;15.30;99.90;;;;;;5092469;28;20620;-85
2021/06/06 07:48:22;;;;;;;12.53;8.73;;;15.30;99.90;;;;;;5093109;28;20647;-85
2021/06/06 07:50:51;;;;;;;9.77;7.50;;;15.20;99.90;;;;;;5087163;28;20649;-85
2021/06/06 07:53:19;;;;;;;15.47;8.77;;;15.20;99.90;;;;;;5089048;28;20635;-88
2021/06/06 07:55:45;;;;;;;11.83;9.23;;;15.10;99.90;;;;;;5092089;28;20608;-86
2021/06/06 07:58:16;;;;;;;11.47;9.20;;;15.10;99.90;;;;;;5091755;28;20616;-85
2021/06/06 08:00:44;;;;;;;14.57;8.67;;;15.10;99.90;;;;;;5093298;28;20662;-87
2021/06/06 08:03:11;;;;;;;13.57;9.00;;;15.10;99.90;;;;;;5092808;28;20605;-87
2021/06/06 08:05:39;;;;;;;15.90;10.70;;;15.00;99.90;;;;;;5093112;28;20609;-87
2021/06/06 08:08:07;;;;;;;14.90;8.47;;;15.10;99.90;;;;;;5092382;28;20623;-87
2021/06/06 08:10:36;;;;;;;11.07;8.70;;;15.10;99.90;;;;;;5092983;28;20593;-87
2021/06/06 08:13:03;;;;;;;13.87;10.70;;;15.10;99.90;;;;;;5084401;28;20625;-87
2021/06/06 08:15:31;;;;;;;12.60;8.73;;;15.20;99.90;;;;;;5072362;28;20621;-87
2021/06/06 08:18:02;;;;;;;14.70;11.67;;;15.30;99.90;;;;;;5071577;28;20617;-88
2021/06/06 08:20:31;;;;;;;12.50;9.40;;;15.20;99.90;;;;;;5072511;28;20628;-87
2021/06/06 08:22:58;;;;;;;21.30;10.40;;;15.20;99.90;;;;;;5072659;28;21177;-88
2021/06/06 08:25:25;;;;;;;16.23;9.43;;;15.10;99.90;;;;;;5066224;28;20628;-87
2021/06/06 08:27:52;;;;;;;15.80;9.63;;;15.10;99.90;;;;;;5071787;28;20610;-86
2021/06/06 08:30:25;;;;;;;16.43;10.63;;;15.10;99.90;;;;;;5071096;28;20960;-86
2021/06/06 08:32:53;;;;;;;17.20;11.43;;;15.30;99.90;;;;;;5071905;28;20600;-88
2021/06/06 08:35:20;;;;;;;13.13;10.50;;;15.10;99.90;;;;;;5071057;28;20604;-88
2021/06/06 08:37:46;;;;;;;15.37;10.00;;;15.10;99.90;;;;;;5071768;28;20621;-87
2021/06/06 08:40:18;;;;;;;18.23;10.30;;;15.20;99.90;;;;;;5071378;28;20621;-87
2021/06/06 08:42:46;;;;;;;12.00;9.47;;;15.20;99.90;;;;;;5071755;28;20704;-87
2021/06/06 08:45:22;;;;;;;13.33;9.47;;;15.30;99.90;;;;;;5071197;28;20593;-86
2021/06/06 08:47:50;;;;;;;12.73;9.40;;;15.20;99.90;;;;;;5071768;28;20750;-88
2021/06/06 08:50:23;;;;;;;15.00;9.90;;;15.30;99.90;;;;;;5071193;28;20998;-88
2021/06/06 08:53:00;;;;;;;13.60;10.33;;;15.30;99.90;;;;;;5085305;28;20624;-88
2021/06/06 08:55:33;;;;;;;17.90;10.27;;;15.20;99.90;;;;;;5091156;28;20999;-89
2021/06/06 08:58:12;;;;;;;15.40;10.70;;;15.20;99.90;;;;;;5091753;28;20616;-88
2021/06/06 09:00:44;;;;;;;17.67;12.03;;;15.20;99.90;;;;;;5071994;28;20610;-88
2021/06/06 09:03:14;;;;;;;17.33;11.90;;;15.30;99.90;;;;;;5071516;28;20633;-87
2021/06/06 09:05:45;;;;;;;15.67;10.97;;;15.40;99.90;;;;;;5070805;28;20731;-88
2021/06/06 09:08:15;;;;;;;14.90;10.37;;;15.40;99.90;;;;;;5071020;28;20671;-88
2021/06/06 09:10:44;;;;;;;22.43;12.60;;;15.30;99.90;;;;;;5071306;28;20692;-87
2021/06/06 09:13:14;;;;;;;20.93;12.63;;;15.40;99.90;;;;;;5071091;28;20679;-87
2021/06/06 09:15:41;;;;;;;17.00;11.40;;;15.40;99.90;;;;;;5073086;28;20604;-88
2021/06/06 09:18:20;;;;;;;17.03;11.87;;;15.30;99.90;;;;;;5078892;28;20626;-88
2021/06/06 09:20:49;;;;;;;16.23;10.60;;;15.40;99.90;;;;;;5080845;28;20648;-88
2021/06/06 09:23:24;;;;;;;17.73;11.20;;;15.50;99.90;;;;;;5080305;28;20732;-88
2021/06/06 09:26:02;;;;;;;15.00;9.40;;;15.50;99.90;;;;;;5082343;28;20600;-87
2021/06/06 09:28:31;;;;;;;14.53;10.60;;;15.40;99.90;;;;;;5077979;28;20640;-86
2021/06/06 09:31:00;;;;;;;16.43;11.57;;;15.30;99.90;;;;;;5080366;28;20667;-87
2021/06/06 09:33:30;;;;;;;17.10;11.87;;;15.40;99.90;;;;;;5079878;28;20682;-87
2021/06/06 09:36:00;;;;;;;17.10;11.43;;;15.40;99.90;;;;;;5074835;28;20649;-89
2021/06/06 09:38:38;;;;;;;15.10;11.20;;;15.40;99.90;;;;;;5070411;28;20640;-87
2021/06/06 09:41:17;;;;;;;19.27;11.30;;;15.40;99.90;;;;;;5069559;28;20613;-87
2021/06/06 09:43:57;;;;;;;13.30;10.27;;;15.40;99.90;;;;;;5069898;28;20613;-88
2021/06/06 09:46:23;;;;;;;14.20;11.10;;;15.50;99.90;;;;;;5078956;28;21238;-87
2021/06/06 09:48:51;;;;;;;18.90;12.00;;;15.50;99.90;;;;;;5079608;28;20652;-87
2021/06/06 09:51:27;;;;;;;15.50;10.60;;;15.50;99.90;;;;;;5081321;28;20621;-87
2021/06/06 09:53:58;;;;;;;18.20;11.50;;;15.40;99.90;;;;;;5080765;28;20605;-88
2021/06/06 09:56:30;;;;;;;15.00;10.63;;;15.40;99.90;;;;;;5078805;28;21285;-87
2021/06/06 09:59:12;;;;;;;14.07;9.83;;;15.40;99.90;;;;;;5080693;28;20610;-87
2021/06/06 10:01:50;;;;;;;15.37;12.40;;;15.40;99.90;;;;;;5072197;28;20685;-89
2021/06/06 10:04:25;;;;;;;15.10;11.70;;;15.40;99.90;;;;;;5098751;28;20620;-88
2021/06/06 10:07:06;;;;;;;13.70;11.60;;;15.40;99.90;;;;;;5070741;28;20639;-88
2021/06/06 10:09:33;;;;;;;15.37;11.30;;;15.30;99.90;;;;;;5070350;28;20649;-88
2021/06/06 10:12:04;;;;;;;14.03;12.00;;;15.40;99.90;;;;;;5070824;28;20610;-87
2021/06/06 10:14:35;;;;;;;16.60;13.07;;;15.50;99.90;;;;;;5073805;28;20624;-88
2021/06/06 10:17:04;;;;;;;18.17;14.13;;;15.70;99.90;;;;;;5079273;28;20616;-89
2021/06/06 10:19:34;;;;;;;20.50;14.57;;;15.70;99.90;;;;;;5073613;28;20613;-88
2021/06/06 10:22:11;;;;;;;23.30;17.40;;;15.70;99.90;;;;;;5090037;28;20608;-86
2021/06/06 10:24:43;;;;;;;23.23;14.43;;;16.00;99.90;;;;;;5089427;28;20632;-87
2021/06/06 10:27:15;;;;;;;21.00;14.83;;;16.10;99.90;;;;;;5090267;28;20604;-88
2021/06/06 10:29:47;;;;;;;21.80;14.13;;;16.20;99.90;;;;;;5084684;28;21026;-87
2021/06/06 10:32:17;;;;;;;19.43;14.93;;;16.30;99.90;;;;;;5073106;28;21027;-88
2021/06/06 10:34:49;;;;;;;18.90;14.83;;;16.10;99.90;;;;;;5089909;28;20611;-87
2021/06/06 10:37:17;;;;;;;20.47;16.47;;;15.90;99.90;;;;;;5089087;28;20654;-87
2021/06/06 10:39:53;;;;;;;24.13;16.97;;;15.80;99.90;;;;;;5082298;28;21263;-88
2021/06/06 10:42:25;;;;;;;21.40;16.53;;;15.90;99.90;;;;;;5092309;28;20631;-88
2021/06/06 10:45:08;;;;;;;25.73;18.00;;;15.90;99.90;;;;;;5092910;28;20685;-90
2021/06/06 10:47:42;;;;;;;22.27;16.80;;;15.80;99.90;;;;;;5085016;28;20623;-89
2021/06/06 10:50:29;;;;;;;26.37;18.90;;;15.80;99.90;;;;;;5094541;28;20652;-89
2021/06/06 10:53:07;;;;;;;26.43;18.10;;;15.90;99.90;;;;;;5073979;28;20678;-88
2021/06/06 10:55:36;;;;;;;24.80;18.20;;;15.90;99.90;;;;;;5076131;28;20621;-88
2021/06/06 10:58:11;;;;;;;23.37;17.40;;;15.70;99.90;;;;;;5094535;28;20612;-89
2021/06/06 11:00:41;;;;;;;25.67;18.70;;;15.60;99.90;;;;;;5094406;28;20620;-88
2021/06/06 11:03:22;;;;;;;26.83;19.93;;;15.60;99.90;;;;;;5093913;28;20613;-88
2021/06/06 11:05:50;;;;;;;27.13;18.77;;;15.70;99.90;;;;;;5093966;28;20600;-89
2021/06/06 11:08:43;;;;;;;30.93;20.73;;;15.70;99.90;;;;;;5093311;28;20673;-88
2021/06/06 11:11:23;;;;;;;28.37;20.80;;;15.70;99.90;;;;;;5094213;28;20623;-89
2021/06/06 11:13:58;;;;;;;29.10;21.23;;;15.70;99.90;;;;;;5093467;28;20624;-88
2021/06/06 11:16:37;;;;;;;33.20;23.80;;;15.90;99.90;;;;;;5092777;28;20613;-89
2021/06/06 11:19:14;;;;;;;29.60;21.43;;;15.90;99.90;;;;;;5092050;28;20653;-88
2021/06/06 11:21:49;;;;;;;34.03;24.47;;;15.90;99.90;;;;;;5092556;28;20963;-87
2021/06/06 11:24:44;;;;;;;33.40;22.03;;;15.90;99.90;;;;;;5092015;28;21275;-87
2021/06/06 11:27:35;;;;;;;33.30;24.73;;;16.00;99.90;;;;;;5093897;28;20617;-88
2021/06/06 11:30:27;;;;;;;35.50;22.47;;;16.10;99.90;;;;;;5084679;28;20681;-89
2021/06/06 11:32:58;;;;;;;37.80;24.20;;;16.00;99.90;;;;;;5072696;28;20621;-88
2021/06/06 11:35:42;;;;;;;44.47;25.57;;;15.90;99.90;;;;;;5073955;28;21168;-88
2021/06/06 11:38:30;;;;;;;36.90;24.87;;;15.90;99.90;;;;;;5072857;28;20625;-88
2021/06/06 11:41:30;;;;;;;38.37;25.30;;;16.00;99.90;;;;;;5072324;28;20630;-89
2021/06/06 11:44:07;;;;;;;37.93;24.87;;;16.00;99.90;;;;;;5079191;28;21200;-89
2021/06/06 11:46:42;;;;;;;41.00;26.77;;;16.00;99.90;;;;;;5072712;28;20624;-89
2021/06/06 11:49:49;;;;;;;41.33;29.03;;;15.90;99.90;;;;;;5073393;28;20665;-88
2021/06/06 11:52:24;;;;;;;35.90;24.57;;;15.90;99.90;;;;;;5072646;28;20657;-89
2021/06/06 11:54:55;;;;;;;36.17;26.47;;;16.00;99.90;;;;;;5084807;28;20665;-88
2021/06/06 11:57:27;;;;;;;42.73;25.30;;;15.80;99.90;;;;;;5091447;28;20623;-87
2021/06/06 12:00:30;;;;;;;47.50;27.87;;;15.80;99.90;;;;;;5094327;28;20611;-90
2021/06/06 12:03:20;;;;;;;38.17;27.70;;;15.70;99.90;;;;;;5092838;28;20727;-87
2021/06/06 12:06:06;;;;;;;42.70;27.20;;;15.80;99.90;;;;;;5074786;28;20634;-90
2021/06/06 12:08:39;;;;;;;49.47;27.63;;;15.90;99.90;;;;;;5092165;28;20628;-89
2021/06/06 12:11:10;;;;;;;39.10;26.13;;;15.90;99.90;;;;;;5094477;28;20616;-88
2021/06/06 12:13:40;;;;;;;39.60;26.17;;;15.90;99.90;;;;;;5091931;28;20624;-88
2021/06/06 12:16:11;;;;;;;37.20;27.33;;;15.90;99.90;;;;;;5094807;28;20613;-88
2021/06/06 12:18:48;;;;;;;39.13;25.77;;;15.90;99.90;;;;;;5092626;28;20616;-88
2021/06/06 12:21:19;;;;;;;43.87;27.20;;;15.90;99.90;;;;;;5091173;28;20630;-88
2021/06/06 12:23:50;;;;;;;36.03;25.37;;;16.00;99.90;;;;;;5090045;28;20702;-87
2021/06/06 12:26:24;;;;;;;36.17;25.80;;;16.00;99.90;;;;;;5092092;28;20606;-89
2021/06/06 12:28:55;;;;;;;32.43;23.77;;;16.00;99.90;;;;;;5092160;28;20637;-87
2021/06/06 12:31:27;;;;;;;37.13;24.20;;;16.00;99.90;;;;;;5072969;28;20622;-88
2021/06/06 12:33:55;;;;;;;34.03;24.00;;;16.10;99.90;;;;;;5084320;28;20626;-87
2021/06/06 12:36:27;;;;;;;29.87;22.03;;;16.20;99.90;;;;;;5082806;28;20614;-88
2021/06/06 12:38:56;;;;;;;31.70;22.70;;;16.30;99.90;;;;;;5092654;28;20604;-89
2021/06/06 12:41:23;;;;;;;26.60;19.00;;;16.20;99.90;;;;;;5089813;28;20614;-90
2021/06/06 12:43:53;;;;;;;28.83;21.80;;;16.20;99.90;;;;;;5091811;28;21265;-89
2021/06/06 12:46:20;;;;;;;28.20;20.03;;;16.00;99.90;;;;;;5091482;28;20683;-89
2021/06/06 12:48:58;;;;;;;26.20;21.10;;;16.00;99.90;;;;;;5092183;28;20640;-89
2021/06/06 12:51:29;;;;;;;29.47;21.27;;;16.00;99.90;;;;;;5091193;28;20608;-89
2021/06/06 12:54:07;;;;;;;28.53;20.17;;;16.00;99.90;;;;;;5090656;28;20621;-90
2021/06/06 12:56:36;;;;;;;22.63;18.83;;;16.00;99.90;;;;;;5091447;28;20615;-90